Terminal Aerodrome Forecast
Issued by NWS

Home | Current Version | Previous Version | Text Only | Print | Product List | Glossary On
Versions: 1 2 3 4 5 6 7 8 9 10 11 12 13 14 15 16 17
000
FTUS41 KAKQ 041746
TAFPHF
TAF
KPHF 041746Z 0418/0518 25012G18KT P6SM SCT025 BKN040
     FM042000 26010G15KT P6SM VCSH SCT030 BKN080
     FM050000 30006KT 4SM -RA BKN050 OVC100
     FM050500 26003KT 5SM BR BKN040 OVC100
     FM051000 28003KT 4SM BR BKN020
     FM051400 01006KT P6SM SCT030 BKN080=

USA.gov is the U.S. government's official web portal to all federal, state and local government web resources and services.